Aérodrome :
LOGIN :

S'inscrire | Disclaimer

   EN    FR    IT 

 










Légende :    VFR   VFR Marginal   IFR   IFR Intensif   IFR Très Intensif
Visi : 
Plafond : 
>= 8 km
>= 3000ft
5 à 8 km
1000 à 3000 ft
1500m à 5 km
500 à 1000 ft
800 à 1500m
200 à 500 ft
< 800m
< 200 ft
Symboles :   Orages  Brouillard  Fortes neiges  Fortes précipitations  Vent > 20 kt
SIGMETs :   Divers  Orages  Givrage  Turbulence  Onde Orograph.  Cendres Volcan.






- Altitude de l'aérodrome : 1197 ft
- Code IATA : SPM


ETAD - Spangdahlem Ab

DERNIER METAR :
  • 171056Z AUTO 26005KT 6000 BR FEW003 OVC007 M01/M02 A3004 RMK AO2 VIS 4400 RWY05/23 UPB35E44 SLP186 P0000 T10121019 TSNO $

METARs EXPIRÉS :
  • 171044Z AUTO 26005KT 5000 BR BKN003 OVC007 M01/M02 A3004 RMK AO2 VIS 3600 RWY05/23 UPB35E44 SLP186 TSNO $
  • 171035Z AUTO 26005KT 5000 -UP BR BKN003 OVC008 M01/M02 A3004 RMK AO2 VIS 3600 RWY05/23 UPB35 BKN V OVC CIG 000 RWY05 SLP186 TSNO $
  • 171011Z AUTO 00000KT 5000 BR BKN004 OVC008 M02/M02 A3004 RMK AO2 VIS 3600 RWY05 VIS 3200 RWY05/23 CIG 000 RWY05 SLP188 TSNO $
  • 170956Z AUTO 00000KT 3200 BR OVC003 M02/M02 A3003 RMK AO2 VIS 2000V3200 VIS 2200 RWY05 VIS 2200 RWY05/23 UPB40E54 CIG 000 RWY05 SLP185 P0000 T10191023 TSNO $
  • 170942Z AUTO 26003KT 1800 -UP BR OVC002 M02/M02 A3003 RMK AO2 VIS 1000 RWY05/23 UPB40 CIG 000 RWY05 SLP185 TSNO $
  • 170921Z AUTO 00000KT 1000 R23/1100V1300 BR VV003 M02/M03 A3002 RMK AO2 CIG 000 RWY05 SLP181 TSNO $
  • 170900Z AUTO 00000KT 1400 R23/1100VP1500 BR VV005 M02/M03 A3001 RMK AO2 VIS 0600 RWY05 CIG 000 RWY05 CIG 004 RWY24 SLP178 TSNO $
  • 170856Z AUTO 24003KT 1600 R23/1500VP1500 BR VV005 M02/M03 A3001 RMK AO2 VIS 1600V2400 VIS 0800 RWY05 VIS 0800 RWY05/23 UPB18E23SNB23E41UPB41E55 CIG 000 RWY05 CIG 004 RWY24 SLP178 P0000 60000 T10241030 52015 TSNO $
  • 170838Z AUTO 00000KT 1800 -SN BR OVC004 M03/M03 A3001 RMK AO2 VIS 0600V1800 VIS 1000 RWY05 VIS 1000 RWY05/23 UPB18E23SNB23 CIG 003V005 CIG 000 RWY05 SLP178 TSNO $

TAF TAF ETAD
Valide du 17 à 11h jusqu'au 18 à 17h UTC


171100Z 1711/1817 27006KT 3200 BR SCT003 BKN007 OVC018 620077 QNH3000INS
TEMPO 1711/1713 0800 -FZDZ -SN FZFG VV002 660007
BECMG 1712/1713 27006KT 6000 BR BKN018 OVC030 620186 QNH3002INS
BECMG 1718/1719 25006KT 3200 BR BKN003 OVC008 620037 QNH3014INS
BECMG 1803/1804 25006KT 1600 BR OVC002 620025 QNH3020INS
BECMG 1812/1813 23006KT 6000 BR BKN013 OVC018 620135 QNH3020INS TX01/1714Z TNM01/1806Z LAST NO AMDS AFT 1711 NEXT 1811



MET'MAP, la Météo Aéronautique d'un coup d'oeil ! - Copyright ORBIFLY Décembre 2007 - Disclaimer

ORBIFLY MET'MAP TEAM :

Programmation & Développement : Alexandra Zaïnal
Sur une idée originale de : Baudouin d'Aumeries
Assistance à la programmation : Marc-Olivier Méhu
Soutien technique & logistique : Manuel Goepfert

Contact : metmap@orbifly.com




SOURCES & CREDITS :

   NOAA